Terminal Aerodrome Forecast
Issued by NWS Paducah, KY

Home | Current Version | Previous Version | Text Only | Print | Product List | Glossary On
Versions: 1 2 3 4 5 6 7 8 9 10 11 12 13
000
FTUS43 KPAH 240520
TAFPAH
TAF
KPAH 240520Z 2406/2506 33005KT P6SM VCSH BKN080
      TEMPO 2406/2409 -SHRA
     FM240900 32005KT 6SM -RA BR SCT015 BKN030
      TEMPO 2410/2414 4SM -RA BR BKN010
     FM241500 32009KT P6SM BKN030
     FM250000 28004KT P6SM SCT100=

USA.gov is the U.S. government's official web portal to all federal, state and local government web resources and services.